Eikamaru No.2 — JD3056 — position and weather

sailwx.info

Track history (hours):
 
Tides and Currents Weather Stations Pressure Air Temp Water Temp Dewpoint Dewpoint Depression Visibility Wind Speed Wind Dir Waves Ship Positions

Eikamaru No.2

Last reported at 2015-Jun-29 00:33 UTC. Time now 2015-Jul-02 00:53 UTC.
Position N 34°36' E 135°04'.

Length 60 m; draft 3.3 m.

Type: Tanker. MMSI: 431001342.

Date/timePositionNaut miles runAvg speedWind from/ knotsBaromVisibWave heightAir tempDewpointWater temp
2015-Jun-29 00:33N 34°36' E 135°04'9 9.5
2015-Jun-28 23:33N 34°26' E 135°03'1111.0
2015-Jun-28 22:31N 34°15' E 134°60'  
2015-Jun-26 06:33N 35°05' E 139°36'1211.6
2015-Jun-26 05:33N 35°13' E 139°46'1211.7
2015-Jun-26 04:33N 35°25' E 139°43'1211.4
2015-Jun-26 03:33N 35°35' E 139°51'3 2.7
2015-Jun-26 02:33N 35°37' E 139°50'7 6.7
2015-Jun-26 01:33N 35°31' E 139°46'0 0.2
2015-Jun-26 00:33N 35°32' E 139°46'0 0.0
2015-Jun-25 23:33N 35°32' E 139°46'4 3.9
2015-Jun-25 22:33N 35°31' E 139°50'0 0.0
2015-Jun-25 21:33N 35°31' E 139°50'0 0.0
2015-Jun-25 20:33N 35°31' E 139°50'0 0.0
2015-Jun-25 19:33N 35°31' E 139°50'0 0.0
2015-Jun-25 18:33N 35°31' E 139°50'0 0.0
2015-Jun-25 17:33N 35°31' E 139°50'0 0.0
2015-Jun-25 16:33N 35°31' E 139°50'0 0.0
2015-Jun-25 15:33N 35°31' E 139°50'0 0.0
2015-Jun-25 14:33N 35°31' E 139°50'0 0.0
2015-Jun-25 13:33N 35°31' E 139°50'0 0.0
2015-Jun-25 12:34N 35°31' E 139°50'0 0.0
2015-Jun-25 11:33N 35°31' E 139°50'0 0.0
2015-Jun-25 10:33N 35°31' E 139°50'0 0.0
2015-Jun-25 09:33N 35°31' E 139°50'4 3.6
2015-Jun-25 08:33N 35°31' E 139°46'0 0.0
2015-Jun-25 07:33N 35°31' E 139°46'0 0.0
2015-Jun-25 06:33N 35°31' E 139°46'0 0.0
2015-Jun-25 05:33N 35°31' E 139°46'0 0.0
2015-Jun-25 04:33N 35°31' E 139°46'6 5.8
2015-Jun-25 03:33N 35°32' E 139°53'1110.6
2015-Jun-25 02:33N 35°36' E 140°05'0 0.0
2015-Jun-25 01:33N 35°36' E 140°05'0 0.0
2015-Jun-25 00:33N 35°36' E 140°05'0 0.0
2015-Jun-24 23:33N 35°36' E 140°05'5 5.2
2015-Jun-24 22:33N 35°38' E 139°59'3 2.8
2015-Jun-24 21:32N 35°41' E 139°59'0 0.0
2015-Jun-24 20:33N 35°41' E 139°59'0 0.0
2015-Jun-24 19:33N 35°41' E 139°59'0 0.0
2015-Jun-24 18:33N 35°41' E 139°59'0 0.0
2015-Jun-24 17:33N 35°41' E 139°59'0 0.0
2015-Jun-24 16:33N 35°41' E 139°59'0 0.0
2015-Jun-24 15:33N 35°41' E 139°59'0 0.0
2015-Jun-24 14:33N 35°41' E 139°59'0 0.0
2015-Jun-24 13:33N 35°41' E 139°59'0 0.0
2015-Jun-24 12:33N 35°41' E 139°59'0 0.0
2015-Jun-24 11:33N 35°41' E 139°59'0 0.0
2015-Jun-24 10:33N 35°41' E 139°59'0 0.0
2015-Jun-24 09:33N 35°41' E 139°59'0 0.0
2015-Jun-24 08:33N 35°41' E 139°59'0 0.0
2015-Jun-24 07:33N 35°41' E 139°59'0 0.0
2015-Jun-24 06:33N 35°41' E 139°59'8 8.1
2015-Jun-24 05:33N 35°33' E 139°56'8 8.3
2015-Jun-24 04:33N 35°31' E 139°46'0 0.0
2015-Jun-24 03:34N 35°31' E 139°46'0 0.0
2015-Jun-24 02:34N 35°31' E 139°46'0 0.0
2015-Jun-24 01:34N 35°31' E 139°46'0 0.0
2015-Jun-24 00:33N 35°31' E 139°46'2 2.0
2015-Jun-23 23:33N 35°30' E 139°49'1 1.2
2015-Jun-23 22:33N 35°30' E 139°50'1 0.5
2015-Jun-23 21:33N 35°30' E 139°50'6 6.1
2015-Jun-23 20:33N 35°24' E 139°46'1111.1
2015-Jun-23 19:33N 35°13' E 139°47'511.7
2015-Jun-23 19:06N 35°08' E 139°45'243 9.9
2015-Jun-22 18:33N 34°01' E 135°01'1211.6
2015-Jun-22 17:33N 34°13' E 134°59'1110.2
2015-Jun-22 16:31N 34°23' E 134°60'1110.9
2015-Jun-22 15:33N 34°34' E 135°03'7 6.3
2015-Jun-22 14:25N 34°35' E 134°54'6 0.2
2015-Jun-21 05:15N 34°37' E 135°01'811.2
2015-Jun-21 04:33N 34°36' E 135°11'1110.9
2015-Jun-21 03:33N 34°38' E 135°24'4 3.2
2015-Jun-21 02:18N 34°38' E 135°29'0 0.0
2015-Jun-21 01:34N 34°38' E 135°29'0 0.0
2015-Jun-20 23:33N 34°38' E 135°29'5 4.8
2015-Jun-20 22:33N 34°38' E 135°23'2 1.8
2015-Jun-20 21:33N 34°39' E 135°21'0 0.1
2015-Jun-20 20:34N 34°39' E 135°21'0 0.0
2015-Jun-20 19:33N 34°39' E 135°21'0 0.0
2015-Jun-20 18:33N 34°39' E 135°21'0 0.1
2015-Jun-20 17:33N 34°39' E 135°21'0 0.1
2015-Jun-20 16:33N 34°39' E 135°21'0 0.1
2015-Jun-20 15:34N 34°39' E 135°21'0 0.0
2015-Jun-20 14:33N 34°39' E 135°21'2 2.3
2015-Jun-20 13:33N 34°38' E 135°18'1211.6
2015-Jun-20 12:33N 34°35' E 135°05'  
Track history (hours):
 
Tides and Currents Weather Stations Pressure Air Temp Water Temp Dewpoint Dewpoint Depression Visibility Wind Speed Wind Dir Waves Ship Positions

Eikamaru No.2

Last reported at 2015-Jun-29 00:33 UTC. Time now 2015-Jul-02 00:53 UTC.
Position N 34°36' E 135°04'.

Length 60 m; draft 3.3 m.

Type: Tanker. MMSI: 431001342.

Date/timePositionNaut miles runAvg speedWind from/ knotsBaromVisibWave heightAir tempDewpointWater temp
2015-Jun-29 00:33N 34°36' E 135°04'9 9.5
2015-Jun-28 23:33N 34°26' E 135°03'1111.0
2015-Jun-28 22:31N 34°15' E 134°60'  
2015-Jun-26 06:33N 35°05' E 139°36'1211.6
2015-Jun-26 05:33N 35°13' E 139°46'1211.7
2015-Jun-26 04:33N 35°25' E 139°43'1211.4
2015-Jun-26 03:33N 35°35' E 139°51'3 2.7
2015-Jun-26 02:33N 35°37' E 139°50'7 6.7
2015-Jun-26 01:33N 35°31' E 139°46'0 0.2
2015-Jun-26 00:33N 35°32' E 139°46'0 0.0
2015-Jun-25 23:33N 35°32' E 139°46'4 3.9
2015-Jun-25 22:33N 35°31' E 139°50'0 0.0
2015-Jun-25 21:33N 35°31' E 139°50'0 0.0
2015-Jun-25 20:33N 35°31' E 139°50'0 0.0
2015-Jun-25 19:33N 35°31' E 139°50'0 0.0
2015-Jun-25 18:33N 35°31' E 139°50'0 0.0
2015-Jun-25 17:33N 35°31' E 139°50'0 0.0
2015-Jun-25 16:33N 35°31' E 139°50'0 0.0
2015-Jun-25 15:33N 35°31' E 139°50'0 0.0
2015-Jun-25 14:33N 35°31' E 139°50'0 0.0
2015-Jun-25 13:33N 35°31' E 139°50'0 0.0
2015-Jun-25 12:34N 35°31' E 139°50'0 0.0
2015-Jun-25 11:33N 35°31' E 139°50'0 0.0
2015-Jun-25 10:33N 35°31' E 139°50'0 0.0
2015-Jun-25 09:33N 35°31' E 139°50'4 3.6
2015-Jun-25 08:33N 35°31' E 139°46'0 0.0
2015-Jun-25 07:33N 35°31' E 139°46'0 0.0
2015-Jun-25 06:33N 35°31' E 139°46'0 0.0
2015-Jun-25 05:33N 35°31' E 139°46'0 0.0
2015-Jun-25 04:33N 35°31' E 139°46'6 5.8
2015-Jun-25 03:33N 35°32' E 139°53'1110.6
2015-Jun-25 02:33N 35°36' E 140°05'0 0.0
2015-Jun-25 01:33N 35°36' E 140°05'0 0.0
2015-Jun-25 00:33N 35°36' E 140°05'0 0.0
2015-Jun-24 23:33N 35°36' E 140°05'5 5.2
2015-Jun-24 22:33N 35°38' E 139°59'3 2.8
2015-Jun-24 21:32N 35°41' E 139°59'0 0.0
2015-Jun-24 20:33N 35°41' E 139°59'0 0.0
2015-Jun-24 19:33N 35°41' E 139°59'0 0.0
2015-Jun-24 18:33N 35°41' E 139°59'0 0.0
2015-Jun-24 17:33N 35°41' E 139°59'0 0.0
2015-Jun-24 16:33N 35°41' E 139°59'0 0.0
2015-Jun-24 15:33N 35°41' E 139°59'0 0.0
2015-Jun-24 14:33N 35°41' E 139°59'0 0.0
2015-Jun-24 13:33N 35°41' E 139°59'0 0.0
2015-Jun-24 12:33N 35°41' E 139°59'0 0.0
2015-Jun-24 11:33N 35°41' E 139°59'0 0.0
2015-Jun-24 10:33N 35°41' E 139°59'0 0.0
2015-Jun-24 09:33N 35°41' E 139°59'0 0.0
2015-Jun-24 08:33N 35°41' E 139°59'0 0.0
2015-Jun-24 07:33N 35°41' E 139°59'0 0.0
2015-Jun-24 06:33N 35°41' E 139°59'8 8.1
2015-Jun-24 05:33N 35°33' E 139°56'8 8.3
2015-Jun-24 04:33N 35°31' E 139°46'0 0.0
2015-Jun-24 03:34N 35°31' E 139°46'0 0.0
2015-Jun-24 02:34N 35°31' E 139°46'0 0.0
2015-Jun-24 01:34N 35°31' E 139°46'0 0.0
2015-Jun-24 00:33N 35°31' E 139°46'2 2.0
2015-Jun-23 23:33N 35°30' E 139°49'1 1.2
2015-Jun-23 22:33N 35°30' E 139°50'1 0.5
2015-Jun-23 21:33N 35°30' E 139°50'6 6.1
2015-Jun-23 20:33N 35°24' E 139°46'1111.1
2015-Jun-23 19:33N 35°13' E 139°47'511.7
2015-Jun-23 19:06N 35°08' E 139°45'243 9.9
2015-Jun-22 18:33N 34°01' E 135°01'1211.6
2015-Jun-22 17:33N 34°13' E 134°59'1110.2
2015-Jun-22 16:31N 34°23' E 134°60'1110.9
2015-Jun-22 15:33N 34°34' E 135°03'7 6.3
2015-Jun-22 14:25N 34°35' E 134°54'6 0.2
2015-Jun-21 05:15N 34°37' E 135°01'811.2
2015-Jun-21 04:33N 34°36' E 135°11'1110.9
2015-Jun-21 03:33N 34°38' E 135°24'4 3.2
2015-Jun-21 02:18N 34°38' E 135°29'0 0.0
2015-Jun-21 01:34N 34°38' E 135°29'0 0.0
2015-Jun-20 23:33N 34°38' E 135°29'5 4.8
2015-Jun-20 22:33N 34°38' E 135°23'2 1.8
2015-Jun-20 21:33N 34°39' E 135°21'0 0.1
2015-Jun-20 20:34N 34°39' E 135°21'0 0.0
2015-Jun-20 19:33N 34°39' E 135°21'0 0.0
2015-Jun-20 18:33N 34°39' E 135°21'0 0.1
2015-Jun-20 17:33N 34°39' E 135°21'0 0.1
2015-Jun-20 16:33N 34°39' E 135°21'0 0.1
2015-Jun-20 15:34N 34°39' E 135°21'0 0.0
2015-Jun-20 14:33N 34°39' E 135°21'2 2.3
2015-Jun-20 13:33N 34°38' E 135°18'1211.6
2015-Jun-20 12:33N 34°35' E 135°05'  

Dump ship's entire track history